Terminal Aerodrome Forecast
Issued by NWS Austin/San Antonio, TX

Home | Current Version | Previous Version | Text Only | Print | Product List | Glossary On
Versions: 1 2 3 4 5 6 7 8 9 10 11 12 13 14 15 16 17 18 19
000
FTUS44 KEWX 301100
TAFSAT
TAF
KSAT 301120Z 3012/3118 03011KT P6SM SCT050 BKN100 OVC250
     FM301800 07009KT P6SM BKN040 OVC250
     FM310200 09010KT P6SM OVC030
     FM311200 10010KT 3SM -RA BR SCT008 OVC012=

USA.gov is the U.S. government's official web portal to all federal, state and local government web resources and services.